Standard City, Illinois
Current Conditions -  °F | °C
As of 8:35 AM on Saturday 22 Nov 2014 (Local Time) from K3LF Reporting Station
Overcast Overcast  
Wind Chill: 38°   Ceiling: 8500
Heat Index: 45°   Visibility: 10mi
Dew Point: 40°   Wind: 14mph
Humidity: 84%   Direction: 180°S
Pressure: 30.09"   Gusts: NA
Location:  39.35°N, 89.78°W
Report Text: K3LF 221435Z AUTO 18012KT 10SM OVC085 07/04 A3009 RMK AO2 T00700044
Loading
Personal Weather Stations






























Interactive Weather Map New forecast layout! Learn more

10-Day Weather Forecast

Advertisements
Track Severe Weather on mobile